sensor_id;sensor_type;location;lat;lon;timestamp;pressure;altitude;pressure_sealevel;temperature;humidity
62710;BME280;48770;51.624;5.886;2023-05-10T00:00:11;100695.22;;;22.85;41.54
62710;BME280;48770;51.624;5.886;2023-05-10T00:02:37;100683.28;;;22.85;41.18
62710;BME280;48770;51.624;5.886;2023-05-10T00:05:02;100674.09;;;22.84;41.36
62710;BME280;48770;51.624;5.886;2023-05-10T00:07:28;100676.09;;;22.84;41.25
62710;BME280;48770;51.624;5.886;2023-05-10T00:09:53;100682.47;;;22.84;41.24
62710;BME280;48770;51.624;5.886;2023-05-10T00:12:18;100678.88;;;22.84;41.18
62710;BME280;48770;51.624;5.886;2023-05-10T00:14:44;100674.47;;;22.83;41.55
62710;BME280;48770;51.624;5.886;2023-05-10T00:17:10;100678.06;;;22.83;41.44
62710;BME280;48770;51.624;5.886;2023-05-10T00:19:35;100676.47;;;22.82;41.68
62710;BME280;48770;51.624;5.886;2023-05-10T00:22:00;100682.03;;;22.82;41.48
62710;BME280;48770;51.624;5.886;2023-05-10T00:24:26;100682.03;;;22.82;41.49
62710;BME280;48770;51.624;5.886;2023-05-10T00:26:51;100691.56;;;22.81;41.36
62710;BME280;48770;51.624;5.886;2023-05-10T00:29:17;100685.16;;;22.81;41.78
62710;BME280;48770;51.624;5.886;2023-05-10T00:31:42;100676.81;;;22.81;41.68
62710;BME280;48770;51.624;5.886;2023-05-10T00:34:07;100685.53;;;22.79;41.65
62710;BME280;48770;51.624;5.886;2023-05-10T00:36:33;100684.72;;;22.78;41.68
62710;BME280;48770;51.624;5.886;2023-05-10T00:38:58;100680.75;;;22.80;41.33
62710;BME280;48770;51.624;5.886;2023-05-10T00:41:24;100681.56;;;22.80;41.38
62710;BME280;48770;51.624;5.886;2023-05-10T00:43:49;100675.56;;;22.78;41.67
62710;BME280;48770;51.624;5.886;2023-05-10T00:46:15;100676.81;;;22.81;41.43
62710;BME280;48770;51.624;5.886;2023-05-10T00:48:41;100676.38;;;22.78;41.55
62710;BME280;48770;51.624;5.886;2023-05-10T00:51:07;100676.75;;;22.77;41.48
62710;BME280;48770;51.624;5.886;2023-05-10T00:53:34;100678.34;;;22.78;41.26
62710;BME280;48770;51.624;5.886;2023-05-10T00:56:00;100674.75;;;22.77;41.39
62710;BME280;48770;51.624;5.886;2023-05-10T00:58:27;100678.34;;;22.78;41.57
62710;BME280;48770;51.624;5.886;2023-05-10T01:00:54;100676.75;;;22.77;41.24
62710;BME280;48770;51.624;5.886;2023-05-10T01:03:20;100673.94;;;22.77;41.63
62710;BME280;48770;51.624;5.886;2023-05-10T01:05:46;100672.78;;;22.78;41.27
62710;BME280;48770;51.624;5.886;2023-05-10T01:08:11;100668.75;;;22.75;41.72
62710;BME280;48770;51.624;5.886;2023-05-10T01:10:37;100674.31;;;22.75;41.58
62710;BME280;48770;51.624;5.886;2023-05-10T01:13:02;100676.31;;;22.75;41.34
62710;BME280;48770;51.624;5.886;2023-05-10T01:15:28;100673.50;;;22.75;41.46
62710;BME280;48770;51.624;5.886;2023-05-10T01:17:55;100677.13;;;22.75;41.58
62710;BME280;48770;51.624;5.886;2023-05-10T01:20:21;100679.09;;;22.75;41.32
62710;BME280;48770;51.624;5.886;2023-05-10T01:28:39;100681.00;;;22.71;41.67
62710;BME280;48770;51.624;5.886;2023-05-10T01:34:06;100677.78;;;22.69;41.71
62710;BME280;48770;51.624;5.886;2023-05-10T01:36:40;100675.81;;;22.69;41.25
62710;BME280;48770;51.624;5.886;2023-05-10T01:41:49;100676.19;;;22.68;41.31
62710;BME280;48770;51.624;5.886;2023-05-10T01:44:31;100677.78;;;22.69;41.67
62710;BME280;48770;51.624;5.886;2023-05-10T01:47:06;100678.97;;;22.68;41.33
62710;BME280;48770;51.624;5.886;2023-05-10T01:49:44;100681.75;;;22.68;41.32
62710;BME280;48770;51.624;5.886;2023-05-10T01:52:17;100680.56;;;22.69;41.60
62710;BME280;48770;51.624;5.886;2023-05-10T01:54:55;100682.13;;;22.66;41.36
62710;BME280;48770;51.624;5.886;2023-05-10T01:57:21;100677.34;;;22.67;41.77
62710;BME280;48770;51.624;5.886;2023-05-10T01:59:51;100672.59;;;22.67;41.21
62710;BME280;48770;51.624;5.886;2023-05-10T02:02:19;100680.56;;;22.69;41.29
62710;BME280;48770;51.624;5.886;2023-05-10T02:04:46;100679.78;;;22.68;41.74
62710;BME280;48770;51.624;5.886;2023-05-10T02:07:13;100677.78;;;22.69;41.28
62710;BME280;48770;51.624;5.886;2023-05-10T02:09:40;100679.78;;;22.68;41.48
62710;BME280;48770;51.624;5.886;2023-05-10T02:12:07;100690.13;;;22.68;41.45
62710;BME280;48770;51.624;5.886;2023-05-10T02:14:36;100686.53;;;22.67;41.49
62710;BME280;48770;51.624;5.886;2023-05-10T02:17:05;100685.72;;;22.67;41.58
62710;BME280;48770;51.624;5.886;2023-05-10T02:19:34;100695.69;;;22.68;41.36
62710;BME280;48770;51.624;5.886;2023-05-10T02:22:01;100682.13;;;22.66;41.59
62710;BME280;48770;51.624;5.886;2023-05-10T02:24:28;100694.06;;;22.67;41.69
62710;BME280;48770;51.624;5.886;2023-05-10T02:26:55;100687.69;;;22.66;41.31
62710;BME280;48770;51.624;5.886;2023-05-10T02:29:22;100690.47;;;22.66;41.51
62710;BME280;48770;51.624;5.886;2023-05-10T02:31:51;100700.81;;;22.66;41.25
62710;BME280;48770;51.624;5.886;2023-05-10T02:34:17;100700.03;;;22.65;41.67
62710;BME280;48770;51.624;5.886;2023-05-10T02:36:44;100695.63;;;22.64;41.66
62710;BME280;48770;51.624;5.886;2023-05-10T02:39:11;100692.00;;;22.64;41.64
62710;BME280;48770;51.624;5.886;2023-05-10T02:41:40;100699.22;;;22.65;41.15
62710;BME280;48770;51.624;5.886;2023-05-10T02:44:07;100702.00;;;22.65;41.36
62710;BME280;48770;51.624;5.886;2023-05-10T02:46:34;100702.00;;;22.65;41.38
62710;BME280;48770;51.624;5.886;2023-05-10T02:49:00;100705.94;;;22.64;41.47
62710;BME280;48770;51.624;5.886;2023-05-10T02:51:30;100699.56;;;22.63;41.19
62710;BME280;48770;51.624;5.886;2023-05-10T02:53:57;100704.31;;;22.63;41.23
62710;BME280;48770;51.624;5.886;2023-05-10T02:56:31;100704.31;;;22.63;41.55
62710;BME280;48770;51.624;5.886;2023-05-10T02:58:58;100706.66;;;22.61;41.68
62710;BME280;48770;51.624;5.886;2023-05-10T03:01:23;100703.09;;;22.60;41.22
62710;BME280;48770;51.624;5.886;2023-05-10T03:03:48;100705.88;;;22.60;41.37
62710;BME280;48770;51.624;5.886;2023-05-10T03:06:14;100704.25;;;22.59;41.50
62710;BME280;48770;51.624;5.886;2023-05-10T03:08:39;100703.09;;;22.60;41.16
62710;BME280;48770;51.624;5.886;2023-05-10T03:16:08;100703.81;;;22.57;41.63
62710;BME280;48770;51.624;5.886;2023-05-10T03:19:01;100710.19;;;22.58;41.32
62710;BME280;48770;51.624;5.886;2023-05-10T03:21:31;100711.38;;;22.57;41.25
62710;BME280;48770;51.624;5.886;2023-05-10T03:24:08;100714.97;;;22.57;41.25
62710;BME280;48770;51.624;5.886;2023-05-10T03:26:34;100710.19;;;22.58;41.18
62710;BME280;48770;51.624;5.886;2023-05-10T03:29:00;100705.81;;;22.57;41.66
62710;BME280;48770;51.624;5.886;2023-05-10T03:31:26;100712.19;;;22.57;41.48
62710;BME280;48770;51.624;5.886;2023-05-10T03:33:52;100714.97;;;22.57;41.58
62710;BME280;48770;51.624;5.886;2023-05-10T03:36:19;100718.56;;;22.58;41.17
62710;BME280;48770;51.624;5.886;2023-05-10T03:38:44;100719.38;;;22.58;41.28
62710;BME280;48770;51.624;5.886;2023-05-10T03:41:09;100725.31;;;22.57;41.36
62710;BME280;48770;51.624;5.886;2023-05-10T03:43:35;100723.69;;;22.56;41.20
62710;BME280;48770;51.624;5.886;2023-05-10T03:46:04;100720.09;;;22.55;41.62
62710;BME280;48770;51.624;5.886;2023-05-10T03:48:31;100726.47;;;22.56;41.36
62710;BME280;48770;51.624;5.886;2023-05-10T03:50:56;100724.50;;;22.56;41.35
62710;BME280;48770;51.624;5.886;2023-05-10T03:53:22;100723.25;;;22.54;41.64
62710;BME280;48770;51.624;5.886;2023-05-10T03:55:48;100730.44;;;22.55;41.18
62710;BME280;48770;51.624;5.886;2023-05-10T03:58:13;100736.81;;;22.55;41.17
62710;BME280;48770;51.624;5.886;2023-05-10T04:00:39;100733.22;;;22.55;41.63
62710;BME280;48770;51.624;5.886;2023-05-10T04:03:09;100731.63;;;22.54;41.34
62710;BME280;48770;51.624;5.886;2023-05-10T04:05:34;100736.38;;;22.53;41.17
62710;BME280;48770;51.624;5.886;2023-05-10T04:08:00;100734.41;;;22.54;41.61
62710;BME280;48770;51.624;5.886;2023-05-10T04:10:25;100739.16;;;22.53;41.40
62710;BME280;48770;51.624;5.886;2023-05-10T04:12:50;100734.41;;;22.54;41.55
62710;BME280;48770;51.624;5.886;2023-05-10T04:15:16;100744.75;;;22.53;41.32
62710;BME280;48770;51.624;5.886;2023-05-10T04:17:41;100736.38;;;22.53;41.56
62710;BME280;48770;51.624;5.886;2023-05-10T04:20:07;100747.53;;;22.53;41.05
62710;BME280;48770;51.624;5.886;2023-05-10T04:22:33;100742.31;;;22.52;41.69
62710;BME280;48770;51.624;5.886;2023-05-10T04:24:58;100736.75;;;22.52;41.17
62710;BME280;48770;51.624;5.886;2023-05-10T04:27:24;100735.13;;;22.51;41.21
62710;BME280;48770;51.624;5.886;2023-05-10T04:29:49;100744.31;;;22.51;41.45
62710;BME280;48770;51.624;5.886;2023-05-10T04:32:15;100741.50;;;22.51;41.18
62710;BME280;48770;51.624;5.886;2023-05-10T04:34:42;100739.91;;;22.50;41.12
62710;BME280;48770;51.624;5.886;2023-05-10T04:37:08;100741.88;;;22.50;41.28
62710;BME280;48770;51.624;5.886;2023-05-10T04:39:33;100740.72;;;22.51;41.14
62710;BME280;48770;51.624;5.886;2023-05-10T04:41:58;100745.47;;;22.50;41.44
62710;BME280;48770;51.624;5.886;2023-05-10T04:44:24;100745.47;;;22.50;41.40
62710;BME280;48770;51.624;5.886;2023-05-10T04:46:49;100745.47;;;22.50;41.55
62710;BME280;48770;51.624;5.886;2023-05-10T04:49:14;100750.25;;;22.50;41.64
62710;BME280;48770;51.624;5.886;2023-05-10T04:51:40;100753.03;;;22.50;41.47
62710;BME280;48770;51.624;5.886;2023-05-10T04:54:05;100752.22;;;22.49;41.55
62710;BME280;48770;51.624;5.886;2023-05-10T04:56:30;100752.59;;;22.48;41.49
62710;BME280;48770;51.624;5.886;2023-05-10T04:58:56;100759.78;;;22.49;41.54
62710;BME280;48770;51.624;5.886;2023-05-10T05:01:21;100755.38;;;22.48;41.19
62710;BME280;48770;51.624;5.886;2023-05-10T05:03:48;100759.78;;;22.49;41.17
62710;BME280;48770;51.624;5.886;2023-05-10T05:06:13;100756.56;;;22.46;41.48
62710;BME280;48770;51.624;5.886;2023-05-10T05:08:38;100756.56;;;22.46;41.59
62710;BME280;48770;51.624;5.886;2023-05-10T05:11:04;100762.94;;;22.47;41.21
62710;BME280;48770;51.624;5.886;2023-05-10T05:13:29;100766.09;;;22.45;41.67
62710;BME280;48770;51.624;5.886;2023-05-10T05:15:55;100766.09;;;22.45;41.22
62710;BME280;48770;51.624;5.886;2023-05-10T05:18:20;100766.88;;;22.46;41.56
62710;BME280;48770;51.624;5.886;2023-05-10T05:20:45;100772.47;;;22.46;41.38
62710;BME280;48770;51.624;5.886;2023-05-10T05:23:11;100766.09;;;22.45;41.57
62710;BME280;48770;51.624;5.886;2023-05-10T05:25:36;100770.84;;;22.45;41.10
62710;BME280;48770;51.624;5.886;2023-05-10T05:28:02;100772.03;;;22.44;41.45
62710;BME280;48770;51.624;5.886;2023-05-10T05:30:27;100770.84;;;22.45;41.06
62710;BME280;48770;51.624;5.886;2023-05-10T05:32:52;100770.03;;;22.44;41.60
62710;BME280;48770;51.624;5.886;2023-05-10T05:35:17;100780.38;;;22.44;41.19
62710;BME280;48770;51.624;5.886;2023-05-10T05:37:43;100781.56;;;22.43;41.52
62710;BME280;48770;51.624;5.886;2023-05-10T05:40:12;100777.59;;;22.44;41.00
62710;BME280;48770;51.624;5.886;2023-05-10T05:42:37;100779.56;;;22.43;41.21
62710;BME280;48770;51.624;5.886;2023-05-10T05:45:04;100785.94;;;22.44;41.37
62710;BME280;48770;51.624;5.886;2023-05-10T05:47:29;100788.75;;;22.44;41.02
62710;BME280;48770;51.624;5.886;2023-05-10T05:49:54;100789.91;;;22.43;41.12
62710;BME280;48770;51.624;5.886;2023-05-10T05:52:20;100799.06;;;22.43;41.10
62710;BME280;48770;51.624;5.886;2023-05-10T05:54:46;100800.25;;;22.42;41.19
62710;BME280;48770;51.624;5.886;2023-05-10T05:57:11;100811.41;;;22.42;41.52
62710;BME280;48770;51.624;5.886;2023-05-10T05:59:37;100805.00;;;22.42;41.08
62710;BME280;48770;51.624;5.886;2023-05-10T06:02:07;100799.44;;;22.42;41.26
62710;BME280;48770;51.624;5.886;2023-05-10T06:04:32;100805.81;;;22.42;41.09
62710;BME280;48770;51.624;5.886;2023-05-10T06:06:58;100806.19;;;22.41;41.08
62710;BME280;48770;51.624;5.886;2023-05-10T06:09:23;100813.38;;;22.42;41.30
62710;BME280;48770;51.624;5.886;2023-05-10T06:11:49;100806.19;;;22.41;41.45
62710;BME280;48770;51.624;5.886;2023-05-10T06:14:15;100814.19;;;22.42;41.54
62710;BME280;48770;51.624;5.886;2023-05-10T06:16:40;100818.13;;;22.41;41.10
62710;BME280;48770;51.624;5.886;2023-05-10T06:19:05;100816.53;;;22.40;41.11
62710;BME280;48770;51.624;5.886;2023-05-10T06:21:31;100820.94;;;22.41;41.45
62710;BME280;48770;51.624;5.886;2023-05-10T06:23:56;100823.72;;;22.41;41.04
62710;BME280;48770;51.624;5.886;2023-05-10T06:26:22;100815.34;;;22.41;40.99
62710;BME280;48770;51.624;5.886;2023-05-10T06:28:47;100821.38;;;22.43;41.47
62710;BME280;48770;51.624;5.886;2023-05-10T06:31:12;100814.19;;;22.42;41.45
62710;BME280;48770;51.624;5.886;2023-05-10T06:33:38;100821.72;;;22.42;41.19
62710;BME280;48770;51.624;5.886;2023-05-10T06:36:03;100818.56;;;22.43;41.02
62710;BME280;48770;51.624;5.886;2023-05-10T06:38:29;100821.38;;;22.43;41.31
62710;BME280;48770;51.624;5.886;2023-05-10T06:40:54;100813.00;;;22.43;41.13
62710;BME280;48770;51.624;5.886;2023-05-10T06:43:19;100813.00;;;22.43;41.34
62710;BME280;48770;51.624;5.886;2023-05-10T06:45:45;100819.38;;;22.44;41.06
62710;BME280;48770;51.624;5.886;2023-05-10T06:48:10;100826.94;;;22.43;41.35
62710;BME280;48770;51.624;5.886;2023-05-10T06:50:35;100830.53;;;22.44;41.39
62710;BME280;48770;51.624;5.886;2023-05-10T06:53:01;100835.28;;;22.43;41.09
62710;BME280;48770;51.624;5.886;2023-05-10T06:55:29;100845.28;;;22.44;41.42
62710;BME280;48770;51.624;5.886;2023-05-10T06:57:54;100840.88;;;22.43;41.32
62710;BME280;48770;51.624;5.886;2023-05-10T07:00:20;100840.88;;;22.43;41.32
62710;BME280;48770;51.624;5.886;2023-05-10T07:02:46;100852.00;;;22.43;40.91
62710;BME280;48770;51.624;5.886;2023-05-10T07:05:11;100853.63;;;22.44;41.15
62710;BME280;48770;51.624;5.886;2023-05-10T07:07:37;100847.25;;;22.44;41.12
62710;BME280;48770;51.624;5.886;2023-05-10T07:10:03;100852.81;;;22.44;41.15
62710;BME280;48770;51.624;5.886;2023-05-10T07:12:28;100851.22;;;22.43;40.96
62710;BME280;48770;51.624;5.886;2023-05-10T07:14:53;100856.41;;;22.44;40.97
62710;BME280;48770;51.624;5.886;2023-05-10T07:17:19;100857.59;;;22.43;40.99
62710;BME280;48770;51.624;5.886;2023-05-10T07:19:44;100861.53;;;22.42;41.31
62710;BME280;48770;51.624;5.886;2023-05-10T07:22:09;100857.59;;;22.43;41.36
62710;BME280;48770;51.624;5.886;2023-05-10T07:24:35;100856.78;;;22.43;40.91
62710;BME280;48770;51.624;5.886;2023-05-10T07:27:00;100868.28;;;22.41;40.86
62710;BME280;48770;51.624;5.886;2023-05-10T07:29:26;100856.34;;;22.41;41.07
62710;BME280;48770;51.624;5.886;2023-05-10T07:31:51;100864.69;;;22.41;40.91
62710;BME280;48770;51.624;5.886;2023-05-10T07:34:17;100865.50;;;22.41;41.08
62710;BME280;48770;51.624;5.886;2023-05-10T07:36:42;100874.66;;;22.42;41.35
62710;BME280;48770;51.624;5.886;2023-05-10T07:39:07;100866.66;;;22.40;41.11
62710;BME280;48770;51.624;5.886;2023-05-10T07:41:33;100879.78;;;22.40;40.93
62710;BME280;48770;51.624;5.886;2023-05-10T07:43:58;100880.59;;;22.40;41.34
62710;BME280;48770;51.624;5.886;2023-05-10T07:46:23;100879.00;;;22.39;41.34
62710;BME280;48770;51.624;5.886;2023-05-10T07:48:49;100879.00;;;22.39;41.44
62710;BME280;48770;51.624;5.886;2023-05-10T07:51:14;100885.38;;;22.40;41.00
62710;BME280;48770;51.624;5.886;2023-05-10T07:53:40;100885.38;;;22.40;41.05
62710;BME280;48770;51.624;5.886;2023-05-10T07:56:28;100882.94;;;22.38;41.27
62710;BME280;48770;51.624;5.886;2023-05-10T07:58:58;100882.09;;;22.38;41.00
62710;BME280;48770;51.624;5.886;2023-05-10T08:01:24;100883.75;;;22.39;41.35
62710;BME280;48770;51.624;5.886;2023-05-10T08:03:50;100888.53;;;22.38;40.99
62710;BME280;48770;51.624;5.886;2023-05-10T08:06:17;100888.53;;;22.38;41.01
62710;BME280;48770;51.624;5.886;2023-05-10T08:08:42;100888.53;;;22.38;41.06
62710;BME280;48770;51.624;5.886;2023-05-10T08:11:08;100888.53;;;22.38;41.34
62710;BME280;48770;51.624;5.886;2023-05-10T08:13:33;100888.53;;;22.38;41.38
62710;BME280;48770;51.624;5.886;2023-05-10T08:15:59;100891.31;;;22.38;40.93
62710;BME280;48770;51.624;5.886;2023-05-10T08:18:24;100899.66;;;22.38;40.98
62710;BME280;48770;51.624;5.886;2023-05-10T08:20:49;100897.69;;;22.39;41.04
62710;BME280;48770;51.624;5.886;2023-05-10T08:23:15;100909.16;;;22.37;41.04
62710;BME280;48770;51.624;5.886;2023-05-10T08:25:40;100903.59;;;22.37;41.39
62710;BME280;48770;51.624;5.886;2023-05-10T08:28:06;100908.03;;;22.38;41.40
62710;BME280;48770;51.624;5.886;2023-05-10T08:30:31;100919.16;;;22.38;41.34
62710;BME280;48770;51.624;5.886;2023-05-10T08:32:57;100917.19;;;22.39;41.35
62710;BME280;48770;51.624;5.886;2023-05-10T08:35:22;100915.53;;;22.38;41.05
62710;BME280;48770;51.624;5.886;2023-05-10T08:37:47;100912.75;;;22.38;41.01
62710;BME280;48770;51.624;5.886;2023-05-10T08:40:13;100919.16;;;22.38;41.32
62710;BME280;48770;51.624;5.886;2023-05-10T08:42:43;100919.97;;;22.39;41.08
62710;BME280;48770;51.624;5.886;2023-05-10T08:45:11;100919.16;;;22.38;41.28
62710;BME280;48770;51.624;5.886;2023-05-10T08:47:37;100923.56;;;22.39;41.30
62710;BME280;48770;51.624;5.886;2023-05-10T08:50:03;100923.56;;;22.39;41.26
62710;BME280;48770;51.624;5.886;2023-05-10T08:52:30;100931.91;;;22.39;41.17
62710;BME280;48770;51.624;5.886;2023-05-10T08:54:56;100939.09;;;22.40;41.25
62710;BME280;48770;51.624;5.886;2023-05-10T08:57:21;100929.13;;;22.39;41.37
62710;BME280;48770;51.624;5.886;2023-05-10T08:59:47;100934.72;;;22.39;41.01
62710;BME280;48770;51.624;5.886;2023-05-10T09:02:12;100940.28;;;22.39;40.88
62710;BME280;48770;51.624;5.886;2023-05-10T09:04:38;100934.72;;;22.39;41.13
62710;BME280;48770;51.624;5.886;2023-05-10T09:07:03;100941.09;;;22.40;41.24
62710;BME280;48770;51.624;5.886;2023-05-10T09:09:29;100940.28;;;22.39;41.25
62710;BME280;48770;51.624;5.886;2023-05-10T09:11:55;100941.09;;;22.40;40.96
62710;BME280;48770;51.624;5.886;2023-05-10T09:14:20;100948.28;;;22.41;41.25
62710;BME280;48770;51.624;5.886;2023-05-10T09:16:48;100953.84;;;22.41;40.67
62710;BME280;48770;51.624;5.886;2023-05-10T09:19:13;100957.44;;;22.41;41.25
62710;BME280;48770;51.624;5.886;2023-05-10T09:21:38;100958.59;;;22.40;40.86
62710;BME280;48770;51.624;5.886;2023-05-10T09:24:05;100958.59;;;22.40;40.88
62710;BME280;48770;51.624;5.886;2023-05-10T09:26:31;100956.63;;;22.41;41.00
62710;BME280;48770;51.624;5.886;2023-05-10T09:28:58;100961.03;;;22.42;41.21
62710;BME280;48770;51.624;5.886;2023-05-10T09:31:43;100962.56;;;22.39;40.85
62710;BME280;48770;51.624;5.886;2023-05-10T09:34:09;100970.13;;;22.39;41.37
62710;BME280;48770;51.624;5.886;2023-05-10T09:36:35;100962.56;;;22.39;40.83
62710;BME280;48770;51.624;5.886;2023-05-10T09:39:00;100968.94;;;22.40;41.33
62710;BME280;48770;51.624;5.886;2023-05-10T09:41:25;100970.94;;;22.39;41.31
62710;BME280;48770;51.624;5.886;2023-05-10T09:43:55;100977.31;;;22.40;41.00
62710;BME280;48770;51.624;5.886;2023-05-10T09:46:21;100980.91;;;22.40;41.21
62710;BME280;48770;51.624;5.886;2023-05-10T09:48:48;100978.91;;;22.41;40.93
62710;BME280;48770;51.624;5.886;2023-05-10T09:51:24;100972.53;;;22.40;41.21
62710;BME280;48770;51.624;5.886;2023-05-10T09:54:12;100980.09;;;22.40;41.19
62710;BME280;48770;51.624;5.886;2023-05-10T09:56:38;100975.31;;;22.40;41.24
62710;BME280;48770;51.624;5.886;2023-05-10T09:59:06;100979.72;;;22.41;41.19
62710;BME280;48770;51.624;5.886;2023-05-10T10:01:33;100985.75;;;22.43;41.25
62710;BME280;48770;51.624;5.886;2023-05-10T10:03:58;100989.34;;;22.44;41.18
62710;BME280;48770;51.624;5.886;2023-05-10T10:06:24;100982.97;;;22.43;40.80
62710;BME280;48770;51.624;5.886;2023-05-10T10:08:50;100988.16;;;22.45;41.25
62710;BME280;48770;51.624;5.886;2023-05-10T10:11:16;100988.53;;;22.43;40.92
62710;BME280;48770;51.624;5.886;2023-05-10T10:13:41;100992.94;;;22.44;40.99
62710;BME280;48770;51.624;5.886;2023-05-10T10:16:08;100992.13;;;22.44;41.13
62710;BME280;48770;51.624;5.886;2023-05-10T10:18:35;100994.56;;;22.45;41.25
62710;BME280;48770;51.624;5.886;2023-05-10T10:21:05;100993.38;;;22.46;41.10
62710;BME280;48770;51.624;5.886;2023-05-10T10:23:31;100995.38;;;22.46;41.17
62710;BME280;48770;51.624;5.886;2023-05-10T10:25:56;100990.59;;;22.46;40.90
62710;BME280;48770;51.624;5.886;2023-05-10T10:28:46;100996.53;;;22.45;41.10
62710;BME280;48770;51.624;5.886;2023-05-10T10:31:26;100994.56;;;22.45;41.14
62710;BME280;48770;51.624;5.886;2023-05-10T10:34:00;100996.16;;;22.46;41.27
62710;BME280;48770;51.624;5.886;2023-05-10T10:36:26;100991.78;;;22.45;41.27
62710;BME280;48770;51.624;5.886;2023-05-10T10:39:00;100989.78;;;22.46;40.78
62710;BME280;48770;51.624;5.886;2023-05-10T10:41:50;100992.94;;;22.44;41.25
62710;BME280;48770;51.624;5.886;2023-05-10T10:49:48;101000.13;;;22.45;40.85
62710;BME280;48770;51.624;5.886;2023-05-10T10:57:30;100989.44;;;22.48;40.96
62710;BME280;48770;51.624;5.886;2023-05-10T11:02:55;100996.63;;;22.49;41.23
62710;BME280;48770;51.624;5.886;2023-05-10T11:10:20;101003.44;;;22.51;40.71
62710;BME280;48770;51.624;5.886;2023-05-10T11:13:02;101003.44;;;22.51;40.87
62710;BME280;48770;51.624;5.886;2023-05-10T11:15:35;101003.81;;;22.50;40.86
62710;BME280;48770;51.624;5.886;2023-05-10T11:18:26;101004.16;;;22.48;41.02
62710;BME280;48770;51.624;5.886;2023-05-10T11:21:01;100999.41;;;22.49;40.98
62710;BME280;48770;51.624;5.886;2023-05-10T11:23:47;101007.75;;;22.49;41.14
62710;BME280;48770;51.624;5.886;2023-05-10T11:26:13;101004.97;;;22.49;41.12
62710;BME280;48770;51.624;5.886;2023-05-10T11:28:46;101001.81;;;22.50;41.27
62710;BME280;48770;51.624;5.886;2023-05-10T11:31:16;101006.59;;;22.50;41.13
62710;BME280;48770;51.624;5.886;2023-05-10T11:33:55;101008.22;;;22.51;40.77
62710;BME280;48770;51.624;5.886;2023-05-10T11:36:23;101018.56;;;22.50;40.81
62710;BME280;48770;51.624;5.886;2023-05-10T11:38:48;101017.03;;;22.53;41.21
62710;BME280;48770;51.624;5.886;2023-05-10T11:41:16;101012.63;;;22.52;40.92
62710;BME280;48770;51.624;5.886;2023-05-10T11:43:42;101014.59;;;22.51;40.71
62710;BME280;48770;51.624;5.886;2023-05-10T11:46:09;101015.41;;;22.52;40.99
62710;BME280;48770;51.624;5.886;2023-05-10T11:48:36;101016.22;;;22.52;41.18
62710;BME280;48770;51.624;5.886;2023-05-10T11:51:01;101015.41;;;22.52;41.08
62710;BME280;48770;51.624;5.886;2023-05-10T11:53:29;101016.56;;;22.51;41.25
62710;BME280;48770;51.624;5.886;2023-05-10T11:55:54;101020.97;;;22.52;40.87
62710;BME280;48770;51.624;5.886;2023-05-10T11:58:19;101013.78;;;22.51;40.54
62710;BME280;48770;51.624;5.886;2023-05-10T12:00:46;101018.56;;;22.50;41.01
62710;BME280;48770;51.624;5.886;2023-05-10T12:03:12;101028.88;;;22.50;41.14
62710;BME280;48770;51.624;5.886;2023-05-10T12:05:38;101017.75;;;22.50;41.15
62710;BME280;48770;51.624;5.886;2023-05-10T12:08:14;101024.47;;;22.49;40.58
62710;BME280;48770;51.624;5.886;2023-05-10T12:10:40;101008.94;;;22.48;41.01
62710;BME280;48770;51.624;5.886;2023-05-10T12:13:05;101017.28;;;22.48;40.75
62710;BME280;48770;51.624;5.886;2023-05-10T12:15:35;101024.47;;;22.49;40.90
62710;BME280;48770;51.624;5.886;2023-05-10T12:18:00;101021.69;;;22.49;40.76
62710;BME280;48770;51.624;5.886;2023-05-10T12:20:27;101023.31;;;22.50;40.96
62710;BME280;48770;51.624;5.886;2023-05-10T12:22:57;101022.50;;;22.49;40.75
62710;BME280;48770;51.624;5.886;2023-05-10T12:25:29;101024.47;;;22.49;40.84
62710;BME280;48770;51.624;5.886;2023-05-10T12:27:56;101029.25;;;22.48;41.03
62710;BME280;48770;51.624;5.886;2023-05-10T12:30:29;101037.25;;;22.50;40.75
62710;BME280;48770;51.624;5.886;2023-05-10T12:33:15;101033.56;;;22.45;40.98
62710;BME280;48770;51.624;5.886;2023-05-10T12:35:53;101029.59;;;22.46;41.28
62710;BME280;48770;51.624;5.886;2023-05-10T12:40:58;101042.38;;;22.48;41.17
62710;BME280;48770;51.624;5.886;2023-05-10T12:43:24;101036.00;;;22.47;40.95
62710;BME280;48770;51.624;5.886;2023-05-10T12:45:49;101040.75;;;22.46;41.21
62710;BME280;48770;51.624;5.886;2023-05-10T12:48:15;101041.91;;;22.45;40.78
62710;BME280;48770;51.624;5.886;2023-05-10T12:50:40;101046.31;;;22.46;40.79
62710;BME280;48770;51.624;5.886;2023-05-10T12:53:06;101045.53;;;22.46;40.88
62710;BME280;48770;51.624;5.886;2023-05-10T12:55:31;101054.69;;;22.46;40.78
62710;BME280;48770;51.624;5.886;2023-05-10T12:57:56;101049.13;;;22.46;41.22
62710;BME280;48770;51.624;5.886;2023-05-10T13:00:22;101059.09;;;22.48;41.38
62710;BME280;48770;51.624;5.886;2023-05-10T13:02:47;101060.25;;;22.46;41.03
62710;BME280;48770;51.624;5.886;2023-05-10T13:05:12;101059.09;;;22.48;41.22
62710;BME280;48770;51.624;5.886;2023-05-10T13:07:38;101059.91;;;22.48;41.34
62710;BME280;48770;51.624;5.886;2023-05-10T13:10:05;101062.31;;;22.50;41.25
62710;BME280;48770;51.624;5.886;2023-05-10T13:12:31;101053.97;;;22.50;40.82
62710;BME280;48770;51.624;5.886;2023-05-10T13:14:56;101056.75;;;22.50;41.20
62710;BME280;48770;51.624;5.886;2023-05-10T13:17:22;101058.38;;;22.51;41.13
62710;BME280;48770;51.624;5.886;2023-05-10T13:19:47;101056.38;;;22.51;41.34
62710;BME280;48770;51.624;5.886;2023-05-10T13:22:12;101054.41;;;22.52;41.27
62710;BME280;48770;51.624;5.886;2023-05-10T13:24:38;101052.78;;;22.51;41.33
62710;BME280;48770;51.624;5.886;2023-05-10T13:27:03;101056.03;;;22.53;41.05